createdAt,value
2023-03-23T15:59:56.182Z,20.37
2023-03-23T16:03:08.030Z,20.27
2023-03-23T16:06:25.039Z,20.25
2023-03-23T16:09:28.244Z,20.19
2023-03-23T16:12:31.111Z,20.07
2023-03-23T16:15:34.053Z,19.94
2023-03-23T16:18:37.614Z,19.90
2023-03-23T16:21:41.128Z,19.77
2023-03-23T16:24:43.955Z,19.79
2023-03-23T16:27:52.246Z,19.61
2023-03-23T16:30:56.367Z,19.49
2023-03-23T16:33:59.242Z,19.33
2023-03-23T16:37:02.044Z,19.27
2023-03-23T16:40:07.157Z,19.17
2023-03-23T16:43:10.840Z,19.09
2023-03-23T16:46:14.332Z,19.02
2023-03-23T16:49:17.359Z,19.00
2023-03-23T16:52:20.557Z,18.89
2023-03-23T16:55:26.198Z,18.81
2023-03-23T16:58:29.174Z,18.78
2023-03-23T17:01:32.099Z,18.69
2023-03-23T17:04:34.882Z,18.61
2023-03-23T17:07:39.160Z,18.52
2023-03-23T17:10:43.789Z,18.46
2023-03-23T17:13:46.619Z,18.39
2023-03-23T17:16:49.390Z,18.34
2023-03-23T17:19:52.494Z,18.27
2023-03-23T17:22:55.384Z,18.19
2023-03-23T17:25:58.439Z,18.20
2023-03-23T17:29:01.171Z,18.11
2023-03-23T17:32:06.000Z,18.02
2023-03-23T17:35:13.941Z,18.00
2023-03-23T17:38:17.843Z,17.94
2023-03-23T17:41:23.461Z,17.88
2023-03-23T17:44:26.719Z,17.85
2023-03-23T17:47:30.612Z,17.75
2023-03-23T17:50:34.965Z,17.70
2023-03-23T17:53:38.111Z,17.67
2023-03-23T17:56:41.434Z,17.75
2023-03-23T17:59:47.086Z,17.68
2023-03-23T18:02:50.398Z,17.68
2023-03-23T18:06:11.918Z,17.66
2023-03-23T18:09:22.877Z,17.52
2023-03-23T18:12:26.169Z,17.36
2023-03-23T18:15:29.676Z,17.28
2023-03-23T18:18:39.577Z,17.23
2023-03-23T18:21:45.968Z,17.19
2023-03-23T18:24:58.623Z,17.13
2023-03-23T18:28:05.602Z,17.06
2023-03-23T18:31:13.925Z,17.09
2023-03-23T18:34:16.505Z,17.03
2023-03-23T18:37:20.545Z,16.95
2023-03-23T18:40:25.326Z,17.26
2023-03-23T18:43:28.572Z,17.17
2023-03-23T18:46:33.020Z,17.13
2023-03-23T18:49:46.365Z,16.92
2023-03-23T18:52:49.060Z,16.80
2023-03-23T18:55:52.829Z,16.80
2023-03-23T18:58:55.504Z,16.65
2023-03-23T19:01:59.857Z,16.55
2023-03-23T19:05:02.720Z,16.46
2023-03-23T19:08:08.298Z,16.40
2023-03-23T19:11:10.993Z,16.35
2023-03-23T19:14:14.549Z,16.29
2023-03-23T19:17:17.626Z,16.37
2023-03-23T19:20:37.484Z,16.44
2023-03-23T19:23:43.390Z,16.33
2023-03-23T19:26:47.968Z,16.19
2023-03-23T19:29:50.705Z,16.11
2023-03-23T19:32:54.258Z,16.05
2023-03-23T19:36:07.351Z,16.00
2023-03-23T19:39:14.829Z,16.03
2023-03-23T19:42:18.564Z,15.94
2023-03-23T19:45:21.688Z,15.88
2023-03-23T19:48:24.545Z,15.85
2023-03-23T19:51:28.553Z,15.80
2023-03-23T19:54:31.798Z,15.76
2023-03-23T19:57:35.238Z,15.75
2023-03-23T20:00:38.168Z,15.76
2023-03-23T20:03:42.252Z,15.68
2023-03-23T20:06:45.935Z,15.60
2023-03-23T20:09:49.766Z,15.54
2023-03-23T20:12:52.214Z,15.48
2023-03-23T20:15:58.103Z,15.53
2023-03-23T20:19:04.433Z,15.53
2023-03-23T20:22:11.270Z,15.72
2023-03-23T20:25:17.517Z,15.70
2023-03-23T20:28:20.670Z,15.69
2023-03-23T20:31:30.351Z,15.49
2023-03-23T20:34:34.164Z,15.49
2023-03-23T20:37:41.089Z,15.48
2023-03-23T20:40:45.340Z,15.37
2023-03-23T20:43:48.105Z,15.26
2023-03-23T20:46:52.283Z,15.18
2023-03-23T20:49:55.937Z,15.21
2023-03-23T20:52:59.097Z,15.13
2023-03-23T20:56:05.520Z,15.15
2023-03-23T20:59:09.937Z,15.17
2023-03-23T21:02:18.182Z,15.25
2023-03-23T21:05:21.518Z,15.38
2023-03-23T21:08:24.712Z,15.40
2023-03-23T21:11:28.123Z,15.22
2023-03-23T21:14:30.697Z,15.29
2023-03-23T21:17:33.917Z,15.25
2023-03-23T21:20:37.775Z,15.23
2023-03-23T21:23:46.456Z,15.36
2023-03-23T21:26:49.169Z,15.41
2023-03-23T21:29:57.020Z,15.26
2023-03-23T21:32:59.588Z,15.30
2023-03-23T21:36:03.800Z,15.18
2023-03-23T21:39:06.371Z,15.05
2023-03-23T21:42:09.432Z,14.91
2023-03-23T21:45:14.026Z,14.96
2023-03-23T21:48:17.141Z,14.98
2023-03-23T21:51:24.779Z,15.01
2023-03-23T21:54:31.629Z,15.05
2023-03-23T21:57:34.404Z,15.12
2023-03-23T22:00:37.395Z,14.98
2023-03-23T22:03:41.131Z,15.06
2023-03-23T22:06:44.626Z,15.01
2023-03-23T22:09:47.611Z,14.90
2023-03-23T22:12:53.684Z,14.75
2023-03-23T22:15:59.646Z,14.60
2023-03-23T22:19:02.533Z,14.70
2023-03-23T22:22:05.963Z,14.59
2023-03-23T22:25:08.922Z,14.67
2023-03-23T22:28:11.843Z,14.69
2023-03-23T22:31:18.763Z,14.59
2023-03-23T22:34:21.926Z,14.55
2023-03-23T22:37:24.799Z,14.50
2023-03-23T22:40:27.600Z,14.57
2023-03-23T22:43:31.072Z,14.31
2023-03-23T22:46:34.292Z,14.30
2023-03-23T22:49:37.371Z,14.14
2023-03-23T22:52:40.718Z,14.07
2023-03-23T22:55:44.990Z,14.08
2023-03-23T22:58:47.979Z,14.08
2023-03-23T23:01:50.936Z,14.04
2023-03-23T23:04:54.653Z,14.03
2023-03-23T23:07:57.614Z,14.03
2023-03-23T23:11:02.636Z,14.04
2023-03-23T23:14:05.572Z,14.05
2023-03-23T23:17:08.694Z,14.05
2023-03-23T23:20:14.428Z,14.04
2023-03-23T23:23:17.485Z,14.00
2023-03-23T23:26:20.582Z,13.99
2023-03-23T23:29:23.572Z,13.97
2023-03-23T23:32:29.121Z,13.94
2023-03-23T23:35:32.183Z,13.91
2023-03-23T23:38:36.068Z,13.96
2023-03-23T23:41:39.286Z,13.94
2023-03-23T23:44:43.320Z,13.93
2023-03-23T23:47:47.072Z,13.86
2023-03-23T23:50:51.422Z,13.83
2023-03-23T23:53:58.921Z,13.80
2023-03-23T23:57:02.552Z,13.78
